Terminal Aerodrome Forecast
Issued by NWS

Current Version | Previous Version | Graphics & Text | Print | Product List | Glossary On
Versions: 1 2 3 4 5 6 7 8 9 10 11 12 13 14 15 16 17 18 19 20 21 22 23
169
FTUS41 KILN 240520
TAFLUK
TAF
KLUK 240520Z 2406/2506 09012KT P6SM OVC060
     FM240700 09008KT P6SM VCSH OVC050
     FM241200 09011KT 3SM -SHRA BR BKN020 OVC050
     FM241800 07011KT 5SM BR VCSH OVC015
     FM242100 05007KT 5SM BR VCSH OVC012
     FM250200 01006KT P6SM OVC009=

USA.gov is the U.S. government's official web portal to all federal, state and local government web resources and services.